• Join FlightAware (Why Join?)
  • Login
  • US Flag 
Rudolph Flight #1: Scheduled 
11:22PM EST


 

Airport Tracker/Info


-or-


 

Live Flight TrackerFlight Track Log ✈ VH-PPE ✈ 26-Jul-2013 ✈ YVAN - YPDN / DRW

Flight Track Log - Related Links

Times and Time Zones

All times are in EDT time to prevent confusion due to time zone crossing. See the VH-PPE flight status page for this flight to view local times or setup timezone preferences in your user account.

Time Position Orientation Groundspeed Altitude Reporting Facility
EDT Latitude Longitude Course Direction KTS MPH feet Rate Location/Type
10:05PM -13.9652 126.2624 73° East 9,000  Level Aus ATC (Calculated)
10:06PM -13.9489 126.3229 73° East 9,000  Level Aus ATC (Calculated)
10:08PM -13.9265 126.4056 74° East  Level FlightAware Approximate
10:09PM -13.9140 126.4520 74° East  Level FlightAware Approximate
10:09PM -13.9172 126.4401 73° East 9,000  Level Aus ATC (Calculated)
10:11PM -13.8948 126.5228 74° East  Level FlightAware Approximate
10:12PM -13.8823 126.5692 74° East  Level FlightAware Approximate
10:13PM -13.8697 126.6155 74° East  Level FlightAware Approximate
10:13PM -13.8726 126.6049 73° East 9,000  Level Aus ATC (Calculated)
10:14PM -13.8570 126.6623 74° East  Level FlightAware Approximate
10:15PM -13.8527 126.6782 74° East  Level FlightAware Approximate
10:16PM -13.8400 126.7249 74° East  Level FlightAware Approximate
10:17PM -13.8272 126.7717 74° East  Level FlightAware Approximate
10:18PM -13.8145 126.8185 74° East  Level FlightAware Approximate
10:19PM -13.8018 126.8652 74° East  Level FlightAware Approximate
10:20PM -13.7890 126.9120 74° East  Level FlightAware Approximate
10:21PM -13.7763 126.9587 74° East  Level FlightAware Approximate
10:22PM -13.7635 127.0055 74° East  Level FlightAware Approximate
10:23PM -13.7507 127.0522 74° East  Level FlightAware Approximate
10:24PM -13.7380 127.0989 74° East  Level FlightAware Approximate
10:25PM -13.7252 127.1456 74° East  Level FlightAware Approximate
10:26PM -13.7124 127.1924 74° East  Level FlightAware Approximate
10:27PM -13.6996 127.2391 74° East  Level FlightAware Approximate
10:28PM -13.6868 127.2858 74° East  Level FlightAware Approximate
10:29PM -13.6739 127.3325 74° East  Level FlightAware Approximate
10:30PM -13.6611 127.3792 74° East  Level FlightAware Approximate
10:30PM -13.6553 127.4005 72° East 9,000  Level Aus ATC (Calculated)
10:30PM -13.6553 127.4005 72° East 9,000  Level Aus ATC (Calculated)
10:31PM -13.6483 127.4259 74° East  Level FlightAware Approximate
10:32PM -13.6420 127.4487 74° East  Level FlightAware Approximate
10:33PM -13.6292 127.4954 74° East  Level FlightAware Approximate
10:34PM -13.6163 127.5421 74° East  Level FlightAware Approximate
10:35PM -13.6034 127.5888 74° East  Level FlightAware Approximate
10:36PM -13.5905 127.6355 74° East  Level FlightAware Approximate
10:37PM -13.5777 127.6821 74° East  Level FlightAware Approximate
10:38PM -13.5647 127.7288 74° East  Level FlightAware Approximate
10:39PM -13.5518 127.7754 74° East  Level FlightAware Approximate
10:40PM -13.5389 127.8221 74° East  Level FlightAware Approximate
10:41PM -13.5260 127.8687 74° East  Level FlightAware Approximate
10:42PM -13.5131 127.9154 74° East  Level FlightAware Approximate
10:43PM -13.5001 127.9620 74° East  Level FlightAware Approximate
10:44PM -13.4872 128.0086 74° East  Level FlightAware Approximate
10:44PM -13.4768 128.0458 70° East 9,000  Level Aus ATC (Calculated)
10:44PM -13.4768 128.0458 70° East 9,000  Level Aus ATC (Calculated)
10:46PM -13.4604 128.1049 74° East  Level FlightAware Approximate
10:47PM -13.4474 128.1515 74° East  Level FlightAware Approximate
10:47PM -13.4354 128.1946 69° East 9,000  Level Aus ATC (Calculated)
10:48PM -13.4344 128.1981 74° East  Level FlightAware Approximate
10:48PM -13.4354 128.1946 69° East 9,000  Level Aus ATC (Calculated)
10:50PM -13.3748 128.1946 North  Level FlightAware Approximate
10:51PM -13.3583 128.2415 69° East  Level Estimated
10:52PM -13.3429 128.2888 72° East  Level FlightAware Approximate
10:53PM -13.3276 128.3361 72° East  Level FlightAware Approximate
10:54PM -13.3122 128.3834 72° East  Level FlightAware Approximate
10:55PM -13.2969 128.4307 72° East  Level FlightAware Approximate
10:56PM -13.2815 128.4780 72° East  Level FlightAware Approximate
10:57PM -13.2662 128.5253 72° East  Level FlightAware Approximate
10:58PM -13.2508 128.5725 72° East  Level FlightAware Approximate
10:59PM -13.2354 128.6198 72° East  Level FlightAware Approximate
11:00PM -13.2200 128.6671 72° East  Level FlightAware Approximate
11:01PM -13.2046 128.7143 71° East  Level FlightAware Approximate
11:01PM -13.2035 128.8246 69° East 9,000  Level Aus ATC (Calculated)
11:01PM -13.2035 128.8246 69° East 9,000  Level Aus ATC (Calculated)
11:03PM -13.1839 128.8774 69° East  Level FlightAware Approximate
11:03PM -13.1478 128.9603 69° East 183 211  Level Aus ATC (RADAR)
11:05PM -13.1214 129.0383 71° East 175 201 9,100 3,360 Climbing Aus ATC (RADAR)
11:06PM -13.1111 129.0698 71° East 180 207 9,000  Descending Aus ATC (RADAR)
11:06PM -13.1005 129.0922 64° Northeast 175 201 9,100 60 Climbing Aus ATC (RADAR)
11:07PM -13.0900 129.1146 64° Northeast 175 201 9,100  Level Aus ATC (RADAR)
11:08PM -13.0786 129.1413 66° East 175 201 9,100 -60 Level Aus ATC (RADAR)
11:09PM -13.0516 129.2062 67° East 174 200 9,000 -60 Descending Aus ATC (RADAR)
11:10PM -13.0388 129.2413 70° East 174 200 9,000 120 Level Aus ATC (RADAR)
11:10PM -13.0259 129.2808 71° East 174 200 9,200 120 Climbing Aus ATC (RADAR)
11:11PM -13.0137 129.3113 68° East 173 199 9,200 -120 Level Aus ATC (RADAR)
11:11PM -13.0022 129.3382 66° East 176 203 9,100 -120 Descending Aus ATC (RADAR)
11:12PM -12.9916 129.3741 73° East 175 201 9,100  Level Aus ATC (RADAR)
11:13PM -12.9748 129.4302 73° East 175 201 9,100  Level Aus ATC (RADAR)
11:14PM -12.9643 129.4572 68° East 175 201 9,100 60 Level Aus ATC (RADAR)
11:14PM -12.9551 129.4844 71° East 172 198 9,200 60 Climbing Aus ATC (RADAR)
11:15PM -12.9399 129.5235 68° East 176 203 9,200 -60 Level Aus ATC (RADAR)
11:16PM -12.9214 129.5700 68° East 177 204 9,100  Descending Aus ATC (RADAR)
11:17PM -12.9101 129.6061 72° East 176 203 9,200  Climbing Aus ATC (RADAR)
11:18PM -12.8982 129.6335 66° East 179 206 9,100 -60 Descending Aus ATC (RADAR)
11:19PM -12.8782 129.6899 70° East 181 208 9,100  Level Aus ATC (RADAR)
11:20PM -12.8600 129.7385 69° East 182 209 9,100  Level Aus ATC (RADAR)
11:21PM -12.8469 129.7755 70° East 183 211 9,100  Level Aus ATC (RADAR)
11:21PM -12.8411 129.8051 79° East 181 208 9,100 60 Level Aus ATC (RADAR)
11:22PM -12.8204 129.8434 61° Northeast 183 211 9,200  Climbing Aus ATC (RADAR)
11:23PM -12.7992 129.8945 67° East 180 207 9,200 -60 Level Aus ATC (RADAR)
11:24PM -12.7905 129.9184 69° East 179 206 9,100  Descending Aus ATC (RADAR)
11:25PM -12.7797 129.9416 65° Northeast 179 206 9,200  Climbing Aus ATC (RADAR)
11:25PM -12.7618 129.9846 67° East 179 206 9,100  Descending Aus ATC (RADAR)
11:26PM -12.7496 130.0157 68° East 176 203 9,200  Climbing Aus ATC (RADAR)
11:27PM -12.7335 130.0635 71° East 177 204 9,100 -60 Descending Aus ATC (RADAR)
11:28PM -12.7117 130.1229 69° East 178 205 9,100  Level Aus ATC (RADAR)
11:29PM -12.6993 130.1541 68° East 178 205 9,100  Level Aus ATC (RADAR)
11:30PM -12.6806 130.2008 68° East 177 204 9,100 -240 Level Aus ATC (RADAR)
11:30PM -12.6652 130.2422 69° East 188 216 8,700 -660 Descending Aus ATC (RADAR)
11:31PM -12.6542 130.2716 69° East 189 217 8,200 -780 Descending Aus ATC (RADAR)
11:32PM -12.6368 130.3195 70° East 198 228 7,600 -660 Descending Aus ATC (RADAR)
11:33PM -12.6225 130.3647 72° East 200 230 7,100 -660 Descending Aus ATC (RADAR)
11:34PM -12.5996 130.4246 69° East 193 222 6,400 -720 Descending Aus ATC (RADAR)
11:35PM -12.5864 130.4767 75° East 189 217 5,600 -720 Descending Aus ATC (RADAR)
11:36PM -12.5709 130.5169 68° East 182 209 5,100 -720 Descending Aus ATC (RADAR)
11:36PM -12.5597 130.5397 63° Northeast 180 207 4,700 -900 Descending Aus ATC (RADAR)
11:37PM -12.5452 130.5779 69° East 174 200 3,900 -720 Descending Aus ATC (RADAR)
11:38PM -12.5431 130.6252 87° East 163 188 3,400 -480 Descending Aus ATC (RADAR)
11:39PM -12.5444 130.6592 92° East 158 182 3,100 -240 Descending Aus ATC (RADAR)
11:39PM -12.5460 130.6816 94° East 156 180 3,100  Level Aus ATC (RADAR)
11:40PM -12.5470 130.7079 92° East 156 180 3,100 120 Level Aus ATC (RADAR)
11:41PM -12.5481 130.7414 92° East 155 178 3,300 60 Climbing Aus ATC (RADAR)
11:41PM -12.5491 130.7675 92° East 156 180 3,200 -240 Descending Aus ATC (RADAR)
11:42PM -12.5497 130.8010 91° East 154 177 3,000 -600 Descending Aus ATC (RADAR)
11:43PM -12.5477 130.8428 87° East 129 148 2,100 -660 Descending Aus ATC (RADAR)
11:44PM -12.5189 130.8580 27° Northeast 125 144 1,700 -300 Descending Aus ATC (RADAR)
11:44PM -12.5041 130.8483 328° Northwest 129 148 1,700  Level Aus ATC (RADAR)
11:45PM -12.5100 130.8345 246° West 136 157 1,700  Level Aus ATC (RADAR)
11:46PM -12.5302 130.8435 157° South 153 176 1,700  Level Aus ATC (RADAR)
11:46PM -12.5280 130.8516 74° East 125 144 1,700 60 Level Aus ATC (RADAR)
11:47PM -12.5078 130.8389 329° Northwest 136 157 1,800  Climbing Aus ATC (RADAR)
11:48PM -12.5329 130.8404 177° South 122 140 1,700 -180 Descending Aus ATC (RADAR)
11:49PM -12.4968 130.8674 36° Northeast 108 124 1,500 -360 Descending Aus ATC (RADAR)
11:50PM -12.4657 130.8709 North 101 116 1,000 -660 Descending Aus ATC (RADAR)
11:51PM -12.4383 130.8713 North 100 115 500 -660 Descending Aus ATC (RADAR)
11:53PM -12.4147 130.8767 13° North  Level Estimated
12:00AM -12.4146 130.8768 282° West  Level FlightAware Approximate
12:01AM -12.4147 130.8767 282° West  Level Estimated
12:02AM -12.4146 130.8768 282° West  Level FlightAware Approximate